sensor_id;sensor_type;location;lat;lon;timestamp;P1;durP1;ratioP1;P2;durP2;ratioP2
23768;SDS011;12064;50.890;5.424;2022-12-07T00:06:43;1.67;;;1.57;;
23768;SDS011;12064;50.890;5.424;2022-12-07T00:15:34;1.48;;;1.38;;
23768;SDS011;12064;50.890;5.424;2022-12-07T00:24:25;1.50;;;1.40;;
23768;SDS011;12064;50.890;5.424;2022-12-07T00:33:16;1.67;;;1.57;;
23768;SDS011;12064;50.890;5.424;2022-12-07T00:42:09;1.85;;;1.60;;
23768;SDS011;12064;50.890;5.424;2022-12-07T00:51:00;1.50;;;1.37;;
23768;SDS011;12064;50.890;5.424;2022-12-07T00:59:51;2.72;;;1.40;;
23768;SDS011;12064;50.890;5.424;2022-12-07T01:08:45;1.50;;;1.40;;
23768;SDS011;12064;50.890;5.424;2022-12-07T01:17:35;1.40;;;1.30;;
23768;SDS011;12064;50.890;5.424;2022-12-07T01:26:26;1.58;;;1.48;;
23768;SDS011;12064;50.890;5.424;2022-12-07T01:35:17;1.20;;;1.20;;
23768;SDS011;12064;50.890;5.424;2022-12-07T01:53:15;1.33;;;1.23;;
23768;SDS011;12064;50.890;5.424;2022-12-07T02:02:08;1.30;;;1.20;;
23768;SDS011;12064;50.890;5.424;2022-12-07T02:11:05;1.48;;;1.33;;
23768;SDS011;12064;50.890;5.424;2022-12-07T02:29:31;1.33;;;1.23;;
23768;SDS011;12064;50.890;5.424;2022-12-07T02:38:52;1.45;;;1.35;;
23768;SDS011;12064;50.890;5.424;2022-12-07T02:48:03;1.50;;;1.40;;
23768;SDS011;12064;50.890;5.424;2022-12-07T03:06:35;1.58;;;1.40;;
23768;SDS011;12064;50.890;5.424;2022-12-07T03:15:54;1.80;;;1.65;;
23768;SDS011;12064;50.890;5.424;2022-12-07T03:24:53;1.53;;;1.30;;
23768;SDS011;12064;50.890;5.424;2022-12-07T03:42:45;1.50;;;1.30;;
23768;SDS011;12064;50.890;5.424;2022-12-07T03:51:45;1.33;;;1.23;;
23768;SDS011;12064;50.890;5.424;2022-12-07T04:00:42;1.40;;;1.30;;
23768;SDS011;12064;50.890;5.424;2022-12-07T04:09:33;1.17;;;1.10;;
23768;SDS011;12064;50.890;5.424;2022-12-07T04:18:24;1.50;;;1.40;;
23768;SDS011;12064;50.890;5.424;2022-12-07T04:27:15;1.30;;;1.20;;
23768;SDS011;12064;50.890;5.424;2022-12-07T04:36:05;1.40;;;1.30;;
23768;SDS011;12064;50.890;5.424;2022-12-07T04:44:56;1.30;;;1.17;;
23768;SDS011;12064;50.890;5.424;2022-12-07T04:53:47;0.97;;;0.97;;
23768;SDS011;12064;50.890;5.424;2022-12-07T05:02:38;1.30;;;1.20;;
23768;SDS011;12064;50.890;5.424;2022-12-07T05:11:29;1.27;;;1.20;;
23768;SDS011;12064;50.890;5.424;2022-12-07T05:20:28;1.20;;;1.10;;
23768;SDS011;12064;50.890;5.424;2022-12-07T05:29:19;1.20;;;1.10;;
23768;SDS011;12064;50.890;5.424;2022-12-07T05:38:10;0.93;;;0.93;;
23768;SDS011;12064;50.890;5.424;2022-12-07T05:47:00;1.17;;;1.07;;
23768;SDS011;12064;50.890;5.424;2022-12-07T05:55:54;1.00;;;1.00;;
23768;SDS011;12064;50.890;5.424;2022-12-07T06:04:45;1.10;;;1.00;;
23768;SDS011;12064;50.890;5.424;2022-12-07T06:13:38;1.45;;;1.00;;
23768;SDS011;12064;50.890;5.424;2022-12-07T06:22:32;1.55;;;1.15;;
23768;SDS011;12064;50.890;5.424;2022-12-07T06:31:22;1.10;;;1.10;;
23768;SDS011;12064;50.890;5.424;2022-12-07T06:40:13;2.40;;;1.20;;
23768;SDS011;12064;50.890;5.424;2022-12-07T06:49:04;1.17;;;1.05;;
23768;SDS011;12064;50.890;5.424;2022-12-07T06:57:56;1.20;;;1.10;;
23768;SDS011;12064;50.890;5.424;2022-12-07T07:06:47;1.30;;;1.20;;
23768;SDS011;12064;50.890;5.424;2022-12-07T07:15:38;1.20;;;1.10;;
23768;SDS011;12064;50.890;5.424;2022-12-07T07:24:30;1.40;;;1.15;;
23768;SDS011;12064;50.890;5.424;2022-12-07T07:33:21;1.38;;;1.27;;
23768;SDS011;12064;50.890;5.424;2022-12-07T07:42:14;1.50;;;1.40;;
23768;SDS011;12064;50.890;5.424;2022-12-07T07:51:07;1.30;;;1.20;;
23768;SDS011;12064;50.890;5.424;2022-12-07T07:59:58;2.15;;;1.17;;
23768;SDS011;12064;50.890;5.424;2022-12-07T08:08:50;1.20;;;1.10;;
23768;SDS011;12064;50.890;5.424;2022-12-07T08:17:41;1.42;;;1.33;;
23768;SDS011;12064;50.890;5.424;2022-12-07T08:26:32;1.57;;;1.37;;
23768;SDS011;12064;50.890;5.424;2022-12-07T08:35:23;1.85;;;1.38;;
23768;SDS011;12064;50.890;5.424;2022-12-07T08:44:17;1.23;;;1.05;;
23768;SDS011;12064;50.890;5.424;2022-12-07T08:53:08;2.03;;;1.20;;
23768;SDS011;12064;50.890;5.424;2022-12-07T09:01:59;1.37;;;1.20;;
23768;SDS011;12064;50.890;5.424;2022-12-07T09:10:52;1.33;;;1.15;;
23768;SDS011;12064;50.890;5.424;2022-12-07T09:19:43;1.13;;;1.10;;
23768;SDS011;12064;50.890;5.424;2022-12-07T09:28:33;1.40;;;1.30;;
23768;SDS011;12064;50.890;5.424;2022-12-07T09:37:24;1.50;;;1.40;;
23768;SDS011;12064;50.890;5.424;2022-12-07T09:46:15;1.50;;;1.40;;
23768;SDS011;12064;50.890;5.424;2022-12-07T09:55:14;1.50;;;1.40;;
23768;SDS011;12064;50.890;5.424;2022-12-07T10:04:17;1.35;;;1.20;;
23768;SDS011;12064;50.890;5.424;2022-12-07T10:13:12;1.38;;;1.20;;
23768;SDS011;12064;50.890;5.424;2022-12-07T10:31:01;1.83;;;1.52;;
23768;SDS011;12064;50.890;5.424;2022-12-07T10:40:18;2.58;;;1.25;;
23768;SDS011;12064;50.890;5.424;2022-12-07T11:26:00;1.40;;;1.30;;
23768;SDS011;12064;50.890;5.424;2022-12-07T11:35:03;1.35;;;1.25;;
23768;SDS011;12064;50.890;5.424;2022-12-07T11:44:05;1.35;;;1.20;;
23768;SDS011;12064;50.890;5.424;2022-12-07T12:02:23;1.30;;;1.20;;
23768;SDS011;12064;50.890;5.424;2022-12-07T12:11:26;1.30;;;1.20;;
23768;SDS011;12064;50.890;5.424;2022-12-07T12:20:45;1.85;;;1.30;;
23768;SDS011;12064;50.890;5.424;2022-12-07T12:29:41;1.75;;;1.30;;
23768;SDS011;12064;50.890;5.424;2022-12-07T12:38:34;1.33;;;1.20;;
23768;SDS011;12064;50.890;5.424;2022-12-07T12:47:41;2.63;;;1.30;;
23768;SDS011;12064;50.890;5.424;2022-12-07T12:56:43;2.92;;;1.33;;
23768;SDS011;12064;50.890;5.424;2022-12-07T13:24:25;1.45;;;1.33;;
23768;SDS011;12064;50.890;5.424;2022-12-07T13:33:17;1.50;;;1.27;;
23768;SDS011;12064;50.890;5.424;2022-12-07T13:42:23;3.13;;;1.30;;
23768;SDS011;12064;50.890;5.424;2022-12-07T13:51:24;1.93;;;1.23;;
23768;SDS011;12064;50.890;5.424;2022-12-07T14:00:20;1.88;;;1.30;;
23768;SDS011;12064;50.890;5.424;2022-12-07T14:09:21;1.42;;;1.27;;
23768;SDS011;12064;50.890;5.424;2022-12-07T14:18:29;2.78;;;1.23;;
23768;SDS011;12064;50.890;5.424;2022-12-07T14:27:30;1.30;;;1.08;;
23768;SDS011;12064;50.890;5.424;2022-12-07T14:36:26;2.15;;;1.13;;
23768;SDS011;12064;50.890;5.424;2022-12-07T14:45:18;1.83;;;1.20;;
23768;SDS011;12064;50.890;5.424;2022-12-07T14:54:13;2.00;;;1.10;;
23768;SDS011;12064;50.890;5.424;2022-12-07T15:03:08;1.20;;;1.10;;
23768;SDS011;12064;50.890;5.424;2022-12-07T15:11:59;2.72;;;1.33;;
23768;SDS011;12064;50.890;5.424;2022-12-07T15:20:50;1.33;;;1.23;;
23768;SDS011;12064;50.890;5.424;2022-12-07T15:29:44;1.25;;;1.15;;
23768;SDS011;12064;50.890;5.424;2022-12-07T15:38:35;1.60;;;1.20;;
23768;SDS011;12064;50.890;5.424;2022-12-07T15:47:26;1.67;;;1.10;;
23768;SDS011;12064;50.890;5.424;2022-12-07T15:56:16;1.40;;;1.20;;
23768;SDS011;12064;50.890;5.424;2022-12-07T16:05:07;1.80;;;1.00;;
23768;SDS011;12064;50.890;5.424;2022-12-07T16:13:59;1.48;;;1.17;;
23768;SDS011;12064;50.890;5.424;2022-12-07T16:22:51;1.10;;;1.00;;
23768;SDS011;12064;50.890;5.424;2022-12-07T16:31:42;1.20;;;1.10;;
23768;SDS011;12064;50.890;5.424;2022-12-07T16:40:34;1.10;;;0.87;;
23768;SDS011;12064;50.890;5.424;2022-12-07T16:49:32;1.50;;;1.17;;
23768;SDS011;12064;50.890;5.424;2022-12-07T16:58:25;1.33;;;1.17;;
23768;SDS011;12064;50.890;5.424;2022-12-07T17:07:15;1.00;;;1.00;;
23768;SDS011;12064;50.890;5.424;2022-12-07T17:16:06;1.40;;;1.00;;
23768;SDS011;12064;50.890;5.424;2022-12-07T17:24:57;1.67;;;0.90;;
23768;SDS011;12064;50.890;5.424;2022-12-07T17:33:48;1.90;;;1.33;;
23768;SDS011;12064;50.890;5.424;2022-12-07T17:42:39;1.23;;;1.00;;
23768;SDS011;12064;50.890;5.424;2022-12-07T17:51:33;1.50;;;1.10;;
23768;SDS011;12064;50.890;5.424;2022-12-07T18:00:43;1.50;;;1.02;;
23768;SDS011;12064;50.890;5.424;2022-12-07T18:09:34;1.67;;;1.10;;
23768;SDS011;12064;50.890;5.424;2022-12-07T18:18:27;1.38;;;1.27;;
23768;SDS011;12064;50.890;5.424;2022-12-07T18:27:17;1.30;;;1.20;;
23768;SDS011;12064;50.890;5.424;2022-12-07T18:36:11;1.27;;;1.17;;
23768;SDS011;12064;50.890;5.424;2022-12-07T18:45:03;1.73;;;1.10;;
23768;SDS011;12064;50.890;5.424;2022-12-07T18:53:54;1.40;;;1.15;;
23768;SDS011;12064;50.890;5.424;2022-12-07T19:02:50;1.73;;;1.05;;
23768;SDS011;12064;50.890;5.424;2022-12-07T19:11:43;1.45;;;1.13;;
23768;SDS011;12064;50.890;5.424;2022-12-07T19:20:40;2.03;;;1.23;;
23768;SDS011;12064;50.890;5.424;2022-12-07T19:29:31;1.47;;;1.10;;
23768;SDS011;12064;50.890;5.424;2022-12-07T19:38:22;1.45;;;0.93;;
23768;SDS011;12064;50.890;5.424;2022-12-07T19:47:13;1.77;;;1.20;;
23768;SDS011;12064;50.890;5.424;2022-12-07T19:56:07;2.20;;;1.17;;
23768;SDS011;12064;50.890;5.424;2022-12-07T20:05:02;1.15;;;1.00;;
23768;SDS011;12064;50.890;5.424;2022-12-07T20:13:53;1.27;;;1.10;;
23768;SDS011;12064;50.890;5.424;2022-12-07T20:22:44;1.30;;;1.20;;
23768;SDS011;12064;50.890;5.424;2022-12-07T20:31:42;1.17;;;1.07;;
23768;SDS011;12064;50.890;5.424;2022-12-07T20:40:34;1.08;;;0.90;;
23768;SDS011;12064;50.890;5.424;2022-12-07T20:58:43;1.58;;;1.02;;
23768;SDS011;12064;50.890;5.424;2022-12-07T21:07:45;2.78;;;1.10;;
23768;SDS011;12064;50.890;5.424;2022-12-07T21:16:36;1.40;;;1.05;;
23768;SDS011;12064;50.890;5.424;2022-12-07T21:34:23;2.22;;;0.90;;
23768;SDS011;12064;50.890;5.424;2022-12-07T21:43:14;1.02;;;0.90;;
23768;SDS011;12064;50.890;5.424;2022-12-07T21:52:16;1.75;;;1.08;;
23768;SDS011;12064;50.890;5.424;2022-12-07T22:01:24;0.90;;;0.90;;
23768;SDS011;12064;50.890;5.424;2022-12-07T22:10:17;1.00;;;0.98;;
23768;SDS011;12064;50.890;5.424;2022-12-07T22:37:38;1.33;;;1.00;;
23768;SDS011;12064;50.890;5.424;2022-12-07T22:46:29;1.53;;;0.93;;
23768;SDS011;12064;50.890;5.424;2022-12-07T22:55:20;1.40;;;1.00;;
23768;SDS011;12064;50.890;5.424;2022-12-07T23:04:10;1.20;;;1.03;;
23768;SDS011;12064;50.890;5.424;2022-12-07T23:13:01;1.90;;;1.10;;
23768;SDS011;12064;50.890;5.424;2022-12-07T23:22:10;1.30;;;1.00;;
23768;SDS011;12064;50.890;5.424;2022-12-07T23:31:11;1.13;;;0.90;;
23768;SDS011;12064;50.890;5.424;2022-12-07T23:40:04;1.95;;;1.15;;
23768;SDS011;12064;50.890;5.424;2022-12-07T23:48:56;1.08;;;0.98;;
23768;SDS011;12064;50.890;5.424;2022-12-07T23:57:47;2.03;;;1.13;;
